Time;durP1;ratioP1;P1;durP2;ratioP2;P2;SDS_P1;SDS_P2;PMS_P1;PMS_P2;Temp;Humidity;BMP_temperature;BMP_pressure;BME280_temperature;BME280_humidity;BME280_pressure;Samples;Min_cycle;Max_cycle;Signal;HPM_P1;HPM_P2
2024/01/05 00:02:22;;;;;;;0.00;0.00;;;;;;;;;;6223629;22;20003;-91
2024/01/05 00:04:48;;;;;;;0.00;0.00;;;;;;;;;;6223434;22;20027;-92
2024/01/05 00:07:13;;;;;;;0.00;0.00;;;;;;;;;;6223201;22;20035;-93
2024/01/05 00:09:39;;;;;;;0.00;0.00;;;;;;;;;;6248391;22;20061;-93
2024/01/05 00:12:05;;;;;;;0.00;0.00;;;;;;;;;;6248639;22;20008;-94
2024/01/05 00:14:30;;;;;;;0.00;0.00;;;;;;;;;;6249140;22;20004;-94
2024/01/05 00:16:59;;;;;;;0.00;0.00;;;;;;;;;;6197826;22;20423;-93
2024/01/05 00:19:24;;;;;;;0.00;0.00;;;;;;;;;;6223898;22;20324;-93
2024/01/05 00:21:50;;;;;;;0.00;0.00;;;;;;;;;;6226122;22;20014;-93
2024/01/05 00:24:16;;;;;;;0.00;0.00;;;;;;;;;;6226448;22;20000;-93
2024/01/05 00:26:42;;;;;;;0.00;0.00;;;;;;;;;;6201764;22;20069;-92
2024/01/05 00:29:07;;;;;;;0.00;0.00;;;;;;;;;;6227061;22;20004;-91
2024/01/05 00:31:33;;;;;;;0.00;0.00;;;;;;;;;;6227531;22;20075;-92
2024/01/05 00:34:00;;;;;;;0.00;0.00;;;;;;;;;;6227538;22;20061;-91
2024/01/05 00:36:25;;;;;;;0.00;0.00;;;;;;;;;;6249834;22;20067;-93
2024/01/05 00:38:51;;;;;;;0.00;0.00;;;;;;;;;;6252592;22;20026;-93
2024/01/05 00:41:16;;;;;;;0.00;0.00;;;;;;;;;;6253105;22;20011;-88
2024/01/05 00:43:42;;;;;;;0.00;0.00;;;;;;;;;;6253907;22;20048;-88
2024/01/05 00:46:07;;;;;;;0.00;0.00;;;;;;;;;;6277725;22;20007;-90
2024/01/05 00:48:33;;;;;;;0.00;0.00;;;;;;;;;;6227201;22;20010;-92
2024/01/05 00:50:58;;;;;;;0.00;0.00;;;;;;;;;;6234099;22;20008;-92
2024/01/05 00:53:24;;;;;;;0.00;0.00;;;;;;;;;;6202195;22;20034;-93
2024/01/05 00:55:49;;;;;;;0.00;0.00;;;;;;;;;;6199846;22;20008;-93
2024/01/05 00:58:15;;;;;;;0.00;0.00;;;;;;;;;;6224710;22;20412;-94
2024/01/05 01:00:40;;;;;;;0.00;0.00;;;;;;;;;;6224746;22;20074;-93
2024/01/05 01:03:06;;;;;;;0.00;0.00;;;;;;;;;;6200295;22;20450;-93
2024/01/05 01:05:31;;;;;;;0.00;0.00;;;;;;;;;;6249818;22;20357;-91
2024/01/05 01:07:57;;;;;;;0.00;0.00;;;;;;;;;;6199385;22;20086;-93
2024/01/05 01:10:23;;;;;;;0.00;0.00;;;;;;;;;;6199766;22;20099;-91
2024/01/05 01:12:48;;;;;;;0.00;0.00;;;;;;;;;;6250363;22;20008;-92
2024/01/05 01:15:14;;;;;;;0.00;0.00;;;;;;;;;;6253625;22;20048;-92
2024/01/05 01:17:39;;;;;;;0.00;0.00;;;;;;;;;;6214416;22;20065;-93
2024/01/05 01:20:06;;;;;;;0.00;0.00;;;;;;;;;;6238641;22;20000;-93
2024/01/05 01:22:31;;;;;;;0.00;0.00;;;;;;;;;;6244983;22;20034;-92
2024/01/05 01:24:58;;;;;;;0.00;0.00;;;;;;;;;;6223630;22;20014;-93
2024/01/05 01:27:23;;;;;;;0.00;0.00;;;;;;;;;;6248117;22;20011;-92
2024/01/05 01:29:49;;;;;;;0.00;0.00;;;;;;;;;;6247536;22;20039;-93
2024/01/05 01:32:14;;;;;;;0.00;0.00;;;;;;;;;;6244312;22;20503;-93
2024/01/05 01:34:40;;;;;;;0.00;0.00;;;;;;;;;;6202336;22;20048;-93
2024/01/05 01:37:05;;;;;;;0.00;0.00;;;;;;;;;;6199913;22;20008;-93
2024/01/05 01:39:31;;;;;;;0.00;0.00;;;;;;;;;;6225796;22;20407;-93
2024/01/05 01:41:57;;;;;;;0.00;0.00;;;;;;;;;;6225261;22;20004;-93
2024/01/05 01:44:22;;;;;;;0.00;0.00;;;;;;;;;;6227730;22;20004;-92
2024/01/05 01:46:54;;;;;;;0.00;0.00;;;;;;;;;;6230586;22;20007;-92
2024/01/05 01:49:20;;;;;;;0.00;0.00;;;;;;;;;;6232998;22;20015;-94
2024/01/05 01:51:46;;;;;;;0.00;0.00;;;;;;;;;;6228095;22;20423;-94
2024/01/05 01:54:11;;;;;;;0.00;0.00;;;;;;;;;;6228008;22;20149;-93
2024/01/05 01:56:37;;;;;;;0.00;0.00;;;;;;;;;;6223657;22;20014;-93
2024/01/05 01:59:03;;;;;;;0.00;0.00;;;;;;;;;;6225170;22;20012;-91
2024/01/05 02:01:29;;;;;;;0.00;0.00;;;;;;;;;;6200534;22;20003;-93
2024/01/05 02:03:54;;;;;;;0.00;0.00;;;;;;;;;;6199557;22;20437;-92
2024/01/05 02:06:20;;;;;;;0.00;0.00;;;;;;;;;;6223840;22;19992;-94
2024/01/05 02:08:46;;;;;;;0.00;0.00;;;;;;;;;;6223971;22;20003;-93
2024/01/05 02:11:13;;;;;;;0.00;0.00;;;;;;;;;;6224052;22;20093;-92
2024/01/05 02:13:39;;;;;;;0.00;0.00;;;;;;;;;;6224484;22;20027;-93
2024/01/05 02:16:04;;;;;;;0.00;0.00;;;;;;;;;;6225546;22;19996;-94
2024/01/05 02:18:30;;;;;;;0.00;0.00;;;;;;;;;;6201117;22;20008;-94
2024/01/05 02:20:56;;;;;;;0.00;0.00;;;;;;;;;;6227804;22;20003;-94
2024/01/05 02:23:25;;;;;;;0.00;0.00;;;;;;;;;;6228729;22;20014;-92
2024/01/05 02:25:52;;;;;;;0.00;0.00;;;;;;;;;;6229257;22;20008;-93
2024/01/05 02:28:18;;;;;;;0.00;0.00;;;;;;;;;;6256236;22;19996;-91
2024/01/05 02:30:44;;;;;;;0.00;0.00;;;;;;;;;;6263349;22;20000;-93
2024/01/05 02:33:09;;;;;;;0.00;0.00;;;;;;;;;;6234978;22;20010;-93
2024/01/05 02:35:35;;;;;;;0.00;0.00;;;;;;;;;;6233747;22;20007;-93
2024/01/05 02:38:01;;;;;;;0.00;0.00;;;;;;;;;;6235736;22;19999;-93
2024/01/05 02:40:26;;;;;;;0.00;0.00;;;;;;;;;;6259279;22;20008;-92
2024/01/05 02:42:52;;;;;;;0.00;0.00;;;;;;;;;;6262538;22;20019;-91
2024/01/05 02:45:20;;;;;;;0.00;0.00;;;;;;;;;;6291408;22;20003;-91
2024/01/05 02:47:49;;;;;;;0.00;0.00;;;;;;;;;;6230844;22;20332;-93
2024/01/05 02:50:15;;;;;;;0.00;0.00;;;;;;;;;;6252217;22;20427;-93
2024/01/05 02:52:41;;;;;;;0.00;0.00;;;;;;;;;;6228632;22;20011;-94
2024/01/05 02:55:07;;;;;;;0.00;0.00;;;;;;;;;;6226642;22;20023;-93
2024/01/05 02:57:33;;;;;;;0.00;0.00;;;;;;;;;;6225413;22;20003;-92
2024/01/05 02:59:58;;;;;;;0.00;0.00;;;;;;;;;;6252451;22;20000;-93
2024/01/05 03:02:24;;;;;;;0.00;0.00;;;;;;;;;;6228952;22;20035;-94
2024/01/05 03:04:51;;;;;;;0.00;0.00;;;;;;;;;;6226344;22;20007;-93
2024/01/05 03:07:17;;;;;;;0.00;0.00;;;;;;;;;;6281790;22;19999;-92
2024/01/05 03:09:43;;;;;;;0.00;0.00;;;;;;;;;;6228912;22;20452;-92
2024/01/05 03:12:08;;;;;;;0.00;0.00;;;;;;;;;;6254243;22;20007;-93
2024/01/05 03:14:34;;;;;;;0.00;0.00;;;;;;;;;;6228008;22;20015;-93
2024/01/05 03:17:00;;;;;;;0.00;0.00;;;;;;;;;;6225026;22;20022;-93
2024/01/05 03:19:25;;;;;;;0.00;0.00;;;;;;;;;;6226824;22;20015;-93
2024/01/05 03:21:51;;;;;;;0.00;0.00;;;;;;;;;;6201845;22;20436;-93
2024/01/05 03:24:16;;;;;;;0.00;0.00;;;;;;;;;;6224040;22;20000;-91
2024/01/05 03:26:45;;;;;;;0.00;0.00;;;;;;;;;;6275039;22;20011;-93
2024/01/05 03:29:10;;;;;;;0.00;0.00;;;;;;;;;;6223127;22;19999;-93
2024/01/05 03:31:36;;;;;;;0.00;0.00;;;;;;;;;;6222830;22;20069;-93
2024/01/05 03:34:01;;;;;;;0.00;0.00;;;;;;;;;;6248052;22;20023;-92
2024/01/05 03:36:27;;;;;;;0.00;0.00;;;;;;;;;;6223183;22;20334;-92
2024/01/05 03:38:53;;;;;;;0.00;0.00;;;;;;;;;;6226146;22;20063;-91
2024/01/05 03:41:19;;;;;;;0.00;0.00;;;;;;;;;;6200541;22;20011;-91
2024/01/05 03:43:44;;;;;;;0.00;0.00;;;;;;;;;;6278565;22;20026;-92
2024/01/05 03:46:11;;;;;;;0.00;0.00;;;;;;;;;;6219154;22;20000;-92
2024/01/05 03:48:37;;;;;;;0.00;0.00;;;;;;;;;;6252424;22;20018;-88
2024/01/05 03:51:03;;;;;;;0.00;0.00;;;;;;;;;;6277380;22;20003;-89
2024/01/05 03:53:29;;;;;;;0.00;0.00;;;;;;;;;;6251731;22;20007;-93
2024/01/05 03:55:57;;;;;;;0.00;0.00;;;;;;;;;;6222808;22;20058;-93
2024/01/05 03:58:23;;;;;;;0.00;0.00;;;;;;;;;;6199791;22;20015;-93
2024/01/05 04:00:48;;;;;;;0.00;0.00;;;;;;;;;;6203705;22;20007;-94
2024/01/05 04:03:16;;;;;;;0.00;0.00;;;;;;;;;;6232373;22;20148;-94
2024/01/05 04:05:42;;;;;;;0.00;0.00;;;;;;;;;;6232480;22;20316;-92
2024/01/05 04:08:08;;;;;;;0.00;0.00;;;;;;;;;;6227859;22;20129;-93
2024/01/05 04:10:34;;;;;;;0.00;0.00;;;;;;;;;;6227494;22;20042;-94
2024/01/05 04:13:00;;;;;;;0.00;0.00;;;;;;;;;;6202000;22;20008;-94
2024/01/05 04:15:27;;;;;;;0.00;0.00;;;;;;;;;;6226618;22;20071;-93
2024/01/05 04:17:53;;;;;;;0.00;0.00;;;;;;;;;;6252727;22;20003;-93
2024/01/05 04:20:18;;;;;;;0.00;0.00;;;;;;;;;;6202562;22;20006;-94
2024/01/05 04:22:44;;;;;;;0.00;0.00;;;;;;;;;;6200216;22;20320;-93
2024/01/05 04:25:10;;;;;;;0.00;0.00;;;;;;;;;;6199762;22;20151;-93
2024/01/05 04:27:36;;;;;;;0.00;0.00;;;;;;;;;;6224904;22;20007;-93
2024/01/05 04:30:01;;;;;;;0.00;0.00;;;;;;;;;;6198637;22;20003;-94
2024/01/05 04:32:27;;;;;;;0.00;0.00;;;;;;;;;;6200286;22;20043;-91
2024/01/05 04:34:52;;;;;;;0.00;0.00;;;;;;;;;;6201495;22;20009;-94
2024/01/05 04:37:18;;;;;;;0.00;0.00;;;;;;;;;;6201954;22;20003;-95
2024/01/05 04:39:43;;;;;;;0.00;0.00;;;;;;;;;;6199202;22;20055;-92
2024/01/05 04:42:11;;;;;;;0.00;0.00;;;;;;;;;;6248877;22;20000;-93
2024/01/05 04:44:37;;;;;;;0.00;0.00;;;;;;;;;;6198444;22;20004;-92
2024/01/05 04:47:02;;;;;;;0.00;0.00;;;;;;;;;;6275012;22;20022;-92
2024/01/05 04:49:28;;;;;;;0.00;0.00;;;;;;;;;;6247859;22;20332;-93
2024/01/05 04:51:53;;;;;;;0.00;0.00;;;;;;;;;;6275019;22;20036;-93
2024/01/05 04:54:19;;;;;;;0.00;0.00;;;;;;;;;;6197712;22;20004;-93
2024/01/05 04:56:44;;;;;;;0.00;0.00;;;;;;;;;;6197539;22;20011;-93
2024/01/05 04:59:10;;;;;;;0.00;0.00;;;;;;;;;;6222259;22;20475;-93
2024/01/05 05:01:35;;;;;;;0.00;0.00;;;;;;;;;;6247539;22;20435;-93
2024/01/05 05:04:01;;;;;;;0.00;0.00;;;;;;;;;;6223244;22;20026;-93
2024/01/05 05:06:27;;;;;;;0.00;0.00;;;;;;;;;;6248255;22;20004;-92
2024/01/05 05:08:53;;;;;;;0.00;0.00;;;;;;;;;;6226401;22;20049;-93
2024/01/05 05:11:19;;;;;;;0.00;0.00;;;;;;;;;;6229210;22;20004;-93
2024/01/05 05:13:44;;;;;;;0.00;0.00;;;;;;;;;;6224334;22;20347;-93
2024/01/05 05:16:10;;;;;;;0.00;0.00;;;;;;;;;;6199243;22;20037;-93
2024/01/05 05:18:37;;;;;;;0.00;0.00;;;;;;;;;;6223920;22;20079;-94
2024/01/05 05:21:02;;;;;;;0.00;0.00;;;;;;;;;;6199338;22;20084;-92
2024/01/05 05:23:28;;;;;;;0.00;0.00;;;;;;;;;;6224143;22;20451;-92
2024/01/05 05:25:54;;;;;;;0.00;0.00;;;;;;;;;;6248963;22;20367;-93
2024/01/05 05:28:19;;;;;;;0.00;0.00;;;;;;;;;;6223582;22;20000;-93
2024/01/05 05:30:45;;;;;;;0.00;0.00;;;;;;;;;;6223824;22;20332;-92
2024/01/05 05:33:11;;;;;;;0.00;0.00;;;;;;;;;;6253553;22;20065;-92
2024/01/05 05:35:39;;;;;;;0.00;0.00;;;;;;;;;;6201140;22;20007;-92
2024/01/05 05:38:05;;;;;;;0.00;0.00;;;;;;;;;;6232903;22;20000;-92
2024/01/05 05:40:31;;;;;;;0.00;0.00;;;;;;;;;;6234920;22;20000;-94
2024/01/05 05:42:57;;;;;;;0.00;0.00;;;;;;;;;;6234158;22;20004;-88
2024/01/05 05:45:22;;;;;;;0.00;0.00;;;;;;;;;;6222825;22;20034;-90
2024/01/05 05:47:51;;;;;;;0.00;0.00;;;;;;;;;;6246654;22;20026;-87
2024/01/05 05:50:24;;;;;;;0.00;0.00;;;;;;;;;;6223764;22;20004;-88
2024/01/05 05:52:51;;;;;;;0.00;0.00;;;;;;;;;;6221973;22;20007;-87
2024/01/05 05:55:18;;;;;;;0.00;0.00;;;;;;;;;;6197921;22;20000;-90
2024/01/05 05:57:44;;;;;;;0.00;0.00;;;;;;;;;;6222951;23;20074;-91
2024/01/05 06:00:11;;;;;;;0.00;0.00;;;;;;;;;;6220199;23;20004;-90
2024/01/05 06:02:37;;;;;;;0.00;0.00;;;;;;;;;;6217437;23;20019;-90
2024/01/05 06:05:07;;;;;;;0.00;0.00;;;;;;;;;;6199459;23;20015;-88
2024/01/05 06:07:33;;;;;;;0.00;0.00;;;;;;;;;;6254301;23;20015;-84
2024/01/05 06:10:28;;;;;;;0.00;0.00;;;;;;;;;;6191808;23;20028;-87
2024/01/05 06:13:04;;;;;;;0.00;0.00;;;;;;;;;;6239846;23;20012;-87
2024/01/05 06:15:59;;;;;;;0.00;0.00;;;;;;;;;;6195890;23;20004;-90
2024/01/05 06:18:33;;;;;;;0.00;0.00;;;;;;;;;;6228304;23;20087;-86
2024/01/05 06:20:59;;;;;;;0.00;0.00;;;;;;;;;;6234321;23;20015;-90
2024/01/05 06:23:25;;;;;;;0.00;0.00;;;;;;;;;;6201103;23;20039;-92
2024/01/05 06:25:59;;;;;;;0.00;0.00;;;;;;;;;;6222462;23;20008;-91
2024/01/05 06:28:25;;;;;;;0.00;0.00;;;;;;;;;;6226476;23;20035;-92
2024/01/05 06:30:59;;;;;;;0.00;0.00;;;;;;;;;;6224861;23;20008;-88
2024/01/05 06:33:37;;;;;;;0.00;0.00;;;;;;;;;;6218713;23;20004;-88
2024/01/05 06:36:05;;;;;;;0.00;0.00;;;;;;;;;;6221117;23;20011;-91
2024/01/05 06:38:30;;;;;;;0.00;0.00;;;;;;;;;;6199334;23;20015;-92
2024/01/05 06:41:30;;;;;;;0.00;0.00;;;;;;;;;;6249007;23;20052;-91
2024/01/05 06:44:57;;;;;;;0.00;0.00;;;;;;;;;;6216904;22;20308;-89
2024/01/05 06:57:31;;;;;;;0.00;0.00;;;;;;;;;;6215493;22;20026;-89
2024/01/05 06:59:57;;;;;;;0.00;0.00;;;;;;;;;;6249732;22;20658;-87
2024/01/05 07:02:23;;;;;;;0.00;0.00;;;;;;;;;;6253688;22;20491;-88
2024/01/05 07:04:48;;;;;;;0.00;0.00;;;;;;;;;;6205049;22;20070;-90
2024/01/05 07:07:14;;;;;;;0.00;0.00;;;;;;;;;;6228279;22;20368;-88
2024/01/05 07:09:43;;;;;;;0.00;0.00;;;;;;;;;;6279261;22;20069;-86
2024/01/05 07:12:09;;;;;;;0.00;0.00;;;;;;;;;;6233564;22;20412;-90
2024/01/05 07:14:49;;;;;;;0.00;0.00;;;;;;;;;;6278014;22;20446;-86
2024/01/05 07:17:15;;;;;;;0.00;0.00;;;;;;;;;;6190751;23;20001;-90
2024/01/05 07:19:41;;;;;;;0.00;0.00;;;;;;;;;;6192232;23;20363;-88
2024/01/05 07:22:07;;;;;;;0.00;0.00;;;;;;;;;;6189955;23;20082;-85
2024/01/05 07:27:57;;;;;;;0.00;0.00;;;;;;;;;;6265604;22;20259;-90
2024/01/05 07:30:33;;;;;;;0.00;0.00;;;;;;;;;;6200719;22;20016;-90
2024/01/05 07:33:05;;;;;;;0.00;0.00;;;;;;;;;;6234552;22;20019;-93
2024/01/05 07:38:39;;;;;;;0.00;0.00;;;;;;;;;;6277789;22;20026;-91
2024/01/05 07:41:27;;;;;;;0.00;0.00;;;;;;;;;;6228147;22;20438;-94
2024/01/05 07:47:14;;;;;;;0.00;0.00;;;;;;;;;;6278751;22;20054;-89
2024/01/05 07:53:13;;;;;;;0.00;0.00;;;;;;;;;;6277850;22;20458;-88
2024/01/05 07:55:42;;;;;;;0.00;0.00;;;;;;;;;;6230430;22;20026;-93
2024/01/05 07:58:17;;;;;;;0.00;0.00;;;;;;;;;;6233991;22;20098;-91
2024/01/05 08:09:23;;;;;;;0.00;0.00;;;;;;;;;;6285340;22;20031;-89
2024/01/05 08:11:49;;;;;;;0.00;0.00;;;;;;;;;;6228548;22;20022;-89
2024/01/05 08:14:21;;;;;;;0.00;0.00;;;;;;;;;;6252307;22;20019;-94
2024/01/05 08:16:47;;;;;;;0.00;0.00;;;;;;;;;;6252487;22;20087;-82
2024/01/05 08:19:14;;;;;;;0.00;0.00;;;;;;;;;;6195848;22;20007;-86
2024/01/05 08:21:40;;;;;;;0.00;0.00;;;;;;;;;;6279064;22;20148;-82
2024/01/05 08:24:06;;;;;;;0.00;0.00;;;;;;;;;;6278332;22;20004;-81
2024/01/05 08:26:31;;;;;;;0.00;0.00;;;;;;;;;;6244483;22;20000;-81
2024/01/05 08:28:57;;;;;;;0.00;0.00;;;;;;;;;;6272890;22;20018;-81
2024/01/05 08:31:22;;;;;;;0.00;0.00;;;;;;;;;;6246631;22;19999;-81
2024/01/05 08:33:48;;;;;;;0.00;0.00;;;;;;;;;;6248695;22;20004;-85
2024/01/05 08:36:19;;;;;;;0.00;0.00;;;;;;;;;;6247497;22;20352;-83
2024/01/05 08:38:47;;;;;;;;;;;;;;;;;;6273142;22;20003;-84
2024/01/05 08:41:12;;;;;;;0.00;0.00;;;;;;;;;;6272228;22;19907;-83
2024/01/05 08:43:40;;;;;;;0.00;0.00;;;;;;;;;;6274105;22;20126;-83
2024/01/05 08:46:06;;;;;;;0.00;0.00;;;;;;;;;;6222382;22;20039;-83
2024/01/05 08:48:31;;;;;;;0.00;0.00;;;;;;;;;;6246959;22;20015;-86
2024/01/05 08:50:57;;;;;;;0.00;0.00;;;;;;;;;;6245942;22;20012;-83
2024/01/05 08:53:23;;;;;;;0.00;0.00;;;;;;;;;;6245787;22;20087;-82
2024/01/05 08:55:48;;;;;;;0.00;0.00;;;;;;;;;;6245480;22;20439;-81
2024/01/05 08:58:14;;;;;;;0.00;0.00;;;;;;;;;;6270914;22;20026;-83
2024/01/05 09:00:40;;;;;;;0.00;0.00;;;;;;;;;;6240424;22;20514;-83
2024/01/05 09:03:05;;;;;;;0.00;0.00;;;;;;;;;;6244037;22;20004;-86
2024/01/05 09:05:34;;;;;;;0.00;0.00;;;;;;;;;;6273272;22;20507;-84
2024/01/05 09:08:00;;;;;;;0.00;0.00;;;;;;;;;;6278438;22;20004;-84
2024/01/05 09:10:26;;;;;;;0.00;0.00;;;;;;;;;;6271305;22;20006;-83
2024/01/05 09:12:51;;;;;;;0.00;0.00;;;;;;;;;;6275718;22;20004;-89
2024/01/05 09:15:46;;;;;;;0.00;0.00;;;;;;;;;;6225448;22;19996;-87
2024/01/05 09:18:35;;;;;;;0.00;0.00;;;;;;;;;;6244046;22;20016;-88
2024/01/05 09:21:02;;;;;;;0.00;0.00;;;;;;;;;;6271936;22;20027;-89
2024/01/05 09:23:28;;;;;;;0.00;0.00;;;;;;;;;;6226782;22;20007;-86
2024/01/05 09:25:54;;;;;;;0.00;0.00;;;;;;;;;;6274669;22;20019;-86
2024/01/05 09:28:20;;;;;;;0.00;0.00;;;;;;;;;;6249070;22;20458;-86
2024/01/05 09:30:46;;;;;;;0.00;0.00;;;;;;;;;;6247152;22;20086;-86
2024/01/05 09:33:12;;;;;;;0.00;0.00;;;;;;;;;;6247092;22;20015;-89
2024/01/05 09:35:38;;;;;;;0.00;0.00;;;;;;;;;;6251936;22;20011;-89
2024/01/05 09:38:03;;;;;;;0.00;0.00;;;;;;;;;;6276064;22;20000;-83
2024/01/05 09:44:03;;;;;;;0.00;0.00;;;;;;;;;;6275012;22;20007;-88
2024/01/05 09:46:29;;;;;;;0.00;0.00;;;;;;;;;;6222462;22;20003;-86
2024/01/05 09:49:03;;;;;;;0.00;0.00;;;;;;;;;;6225370;22;20075;-86
2024/01/05 09:51:47;;;;;;;0.00;0.00;;;;;;;;;;6248571;22;20397;-88
2024/01/05 09:54:13;;;;;;;0.00;0.00;;;;;;;;;;6252541;22;20018;-88
2024/01/05 09:56:48;;;;;;;0.00;0.00;;;;;;;;;;6227813;22;20007;-92
2024/01/05 09:59:17;;;;;;;0.00;0.00;;;;;;;;;;6223484;22;20014;-87
2024/01/05 10:01:49;;;;;;;0.00;0.00;;;;;;;;;;6227744;22;20011;-83
2024/01/05 10:04:15;;;;;;;0.00;0.00;;;;;;;;;;6248924;22;20007;-83
2024/01/05 10:06:40;;;;;;;0.00;0.00;;;;;;;;;;6248878;22;20004;-86
2024/01/05 10:09:06;;;;;;;0.00;0.00;;;;;;;;;;6247958;22;20038;-82
2024/01/05 10:11:33;;;;;;;0.00;0.00;;;;;;;;;;6224324;22;20027;-84
2024/01/05 10:14:11;;;;;;;0.00;0.00;;;;;;;;;;6247994;22;19995;-91
2024/01/05 10:16:37;;;;;;;0.00;0.00;;;;;;;;;;6202849;22;20011;-84
2024/01/05 10:19:15;;;;;;;0.00;0.00;;;;;;;;;;6276014;22;20124;-83
2024/01/05 10:21:42;;;;;;;0.00;0.00;;;;;;;;;;6251865;22;20012;-85
2024/01/05 10:24:26;;;;;;;0.00;0.00;;;;;;;;;;6275617;22;20007;-87
2024/01/05 10:27:14;;;;;;;0.00;0.00;;;;;;;;;;6248099;22;20003;-85
2024/01/05 10:29:48;;;;;;;0.00;0.00;;;;;;;;;;6274803;22;20122;-85
2024/01/05 10:32:18;;;;;;;0.00;0.00;;;;;;;;;;6253437;22;20004;-85
2024/01/05 10:34:46;;;;;;;0.00;0.00;;;;;;;;;;6277763;22;20498;-89
2024/01/05 10:37:13;;;;;;;0.00;0.00;;;;;;;;;;6295664;22;20007;-89
2024/01/05 10:39:48;;;;;;;0.00;0.00;;;;;;;;;;6242740;22;20003;-85
2024/01/05 10:42:20;;;;;;;0.00;0.00;;;;;;;;;;6262696;22;20000;-83
2024/01/05 10:44:52;;;;;;;0.00;0.00;;;;;;;;;;6289113;22;20020;-85
2024/01/05 10:47:25;;;;;;;0.00;0.00;;;;;;;;;;6243052;22;20129;-86
2024/01/05 10:49:57;;;;;;;0.00;0.00;;;;;;;;;;6207851;22;20007;-85
2024/01/05 10:52:24;;;;;;;0.00;0.00;;;;;;;;;;6256126;22;19995;-82
2024/01/05 10:54:52;;;;;;;0.00;0.00;;;;;;;;;;6289202;22;20026;-88
2024/01/05 10:57:20;;;;;;;0.00;0.00;;;;;;;;;;6231576;22;19999;-82
2024/01/05 10:59:49;;;;;;;0.00;0.00;;;;;;;;;;6290990;22;20057;-85
2024/01/05 11:02:38;;;;;;;0.00;0.00;;;;;;;;;;6286013;22;19999;-88
2024/01/05 11:05:16;;;;;;;0.00;0.00;;;;;;;;;;6252131;22;20007;-90
2024/01/05 11:07:42;;;;;;;0.00;0.00;;;;;;;;;;6201883;22;20359;-87
2024/01/05 11:10:28;;;;;;;0.00;0.00;;;;;;;;;;6275183;22;20004;-85
2024/01/05 11:13:14;;;;;;;0.10;0.00;;;;;;;;;;6254385;22;20091;-83
2024/01/05 11:16:15;;;;;;;0.00;0.00;;;;;;;;;;6277303;22;20003;-85
2024/01/05 11:18:55;;;;;;;0.00;0.00;;;;;;;;;;6277564;22;20061;-86
2024/01/05 11:22:15;;;;;;;0.00;0.00;;;;;;;;;;6277030;22;20007;-85
2024/01/05 11:24:40;;;;;;;0.00;0.00;;;;;;;;;;6277385;22;20011;-88
2024/01/05 11:27:34;;;;;;;0.00;0.00;;;;;;;;;;6248596;22;20346;-82
2024/01/05 11:30:00;;;;;;;0.00;0.00;;;;;;;;;;6245594;22;20031;-83
2024/01/05 11:32:45;;;;;;;0.00;0.00;;;;;;;;;;6247120;22;20003;-84
2024/01/05 11:35:39;;;;;;;0.00;0.00;;;;;;;;;;6270768;22;20015;-87
2024/01/05 11:38:26;;;;;;;0.00;0.00;;;;;;;;;;6190656;22;20007;-92
2024/01/05 11:40:52;;;;;;;0.00;0.00;;;;;;;;;;6194277;23;20262;-91
2024/01/05 11:43:42;;;;;;;0.00;0.00;;;;;;;;;;6214105;23;20067;-90
2024/01/05 11:46:52;;;;;;;0.00;0.00;;;;;;;;;;5065227;27;1480738;-90
2024/01/05 11:49:57;;;;;;;0.00;0.00;;;;;;;;;;5089404;28;20109;-89
2024/01/05 11:52:23;;;;;;;0.00;0.00;;;;;;;;;;5098711;28;20077;-95
2024/01/05 11:55:07;;;;;;;0.00;0.00;;;;;;;;;;5093295;28;20028;-90
2024/01/05 11:57:33;;;;;;;0.00;0.00;;;;;;;;;;5108799;28;20077;-92
2024/01/05 11:59:58;;;;;;;0.00;0.00;;;;;;;;;;5113328;28;20028;-93
2024/01/05 12:02:25;;;;;;;0.00;0.00;;;;;;;;;;5110511;28;20449;-92
2024/01/05 12:04:52;;;;;;;0.00;0.00;;;;;;;;;;5104332;28;20059;-89
2024/01/05 12:07:20;;;;;;;0.00;0.00;;;;;;;;;;5235162;22;20122;-84
2024/01/05 12:09:51;;;;;;;0.00;0.00;;;;;;;;;;5031865;28;20029;-89
2024/01/05 12:12:17;;;;;;;0.00;0.00;;;;;;;;;;5045293;28;20080;-85
2024/01/05 12:14:42;;;;;;;0.00;0.00;;;;;;;;;;5067625;28;20083;-87
2024/01/05 12:17:14;;;;;;;0.00;0.00;;;;;;;;;;5052206;28;20416;-84
2024/01/05 12:19:40;;;;;;;0.00;0.00;;;;;;;;;;5067511;28;20028;-83
2024/01/05 12:22:08;;;;;;;0.00;0.00;;;;;;;;;;5070016;28;20333;-82
2024/01/05 12:24:35;;;;;;;0.00;0.00;;;;;;;;;;5088910;28;20478;-87
2024/01/05 12:27:00;;;;;;;0.00;0.00;;;;;;;;;;5093248;28;20458;-88
2024/01/05 12:29:26;;;;;;;0.00;0.00;;;;;;;;;;5094477;28;20033;-88
2024/01/05 12:31:52;;;;;;;0.00;0.00;;;;;;;;;;5077477;28;20323;-87
2024/01/05 12:34:17;;;;;;;0.00;0.00;;;;;;;;;;5034172;28;20080;-86
2024/01/05 12:36:43;;;;;;;0.00;0.00;;;;;;;;;;5063648;28;20020;-86
2024/01/05 12:39:12;;;;;;;0.00;0.00;;;;;;;;;;5032379;28;20032;-87
2024/01/05 12:41:39;;;;;;;0.00;0.00;;;;;;;;;;5049831;28;20093;-87
2024/01/05 12:44:07;;;;;;;0.00;0.00;;;;;;;;;;5049005;28;20029;-87
2024/01/05 12:46:39;;;;;;;0.00;0.00;;;;;;;;;;5050440;28;20211;-87
2024/01/05 12:49:18;;;;;;;0.00;0.00;;;;;;;;;;5035157;28;20040;-87
2024/01/05 12:51:47;;;;;;;0.00;0.00;;;;;;;;;;5064547;28;20056;-87
2024/01/05 12:54:13;;;;;;;0.00;0.00;;;;;;;;;;5065550;28;20063;-88
2024/01/05 12:56:43;;;;;;;0.00;0.00;;;;;;;;;;5042329;28;20053;-94
2024/01/05 12:59:10;;;;;;;0.00;0.00;;;;;;;;;;5022609;28;20510;-92
2024/01/05 13:01:36;;;;;;;0.00;0.00;;;;;;;;;;5041349;28;20086;-92
2024/01/05 13:04:01;;;;;;;0.00;0.00;;;;;;;;;;5040625;28;20082;-93
2024/01/05 13:06:29;;;;;;;0.00;0.00;;;;;;;;;;5058029;28;20029;-95
2024/01/05 13:08:55;;;;;;;0.00;0.00;;;;;;;;;;5023572;28;20056;-93
2024/01/05 13:11:21;;;;;;;0.00;0.00;;;;;;;;;;5043009;28;20498;-93
2024/01/05 13:13:47;;;;;;;0.00;0.00;;;;;;;;;;5059253;28;20033;-94
2024/01/05 13:16:12;;;;;;;0.00;0.00;;;;;;;;;;5032728;28;20135;-93
2024/01/05 13:18:38;;;;;;;0.00;0.00;;;;;;;;;;5048701;28;20035;-95
2024/01/05 13:21:04;;;;;;;0.00;0.00;;;;;;;;;;5047775;28;20035;-94
2024/01/05 13:23:31;;;;;;;0.00;0.00;;;;;;;;;;5024650;28;20454;-93
2024/01/05 13:25:56;;;;;;;0.00;0.00;;;;;;;;;;5058312;28;20029;-96
2024/01/05 13:28:22;;;;;;;0.00;0.00;;;;;;;;;;5045571;28;20025;-92
2024/01/05 13:30:47;;;;;;;0.00;0.00;;;;;;;;;;5061328;28;20030;-91
2024/01/05 13:33:13;;;;;;;0.00;0.00;;;;;;;;;;5041896;28;20040;-93
2024/01/05 13:35:38;;;;;;;0.00;0.00;;;;;;;;;;5037443;28;20040;-93
2024/01/05 13:38:04;;;;;;;0.00;0.00;;;;;;;;;;5043190;28;20033;-92
2024/01/05 13:40:29;;;;;;;0.00;0.00;;;;;;;;;;5042841;28;20028;-95
2024/01/05 13:42:55;;;;;;;0.00;0.00;;;;;;;;;;5081671;28;20032;-96
2024/01/05 13:45:21;;;;;;;0.00;0.00;;;;;;;;;;5081263;28;20063;-95
2024/01/05 13:47:46;;;;;;;0.00;0.00;;;;;;;;;;5064061;28;20037;-95
2024/01/05 13:50:12;;;;;;;0.00;0.00;;;;;;;;;;5062231;28;20086;-96
2024/01/05 13:52:37;;;;;;;0.00;0.00;;;;;;;;;;5062190;28;20088;-93
2024/01/05 13:55:03;;;;;;;0.00;0.00;;;;;;;;;;5065151;28;20099;-95
2024/01/05 13:57:30;;;;;;;0.00;0.00;;;;;;;;;;5079182;28;20439;-95
2024/01/05 13:59:56;;;;;;;0.00;0.00;;;;;;;;;;5062660;28;20028;-93
2024/01/05 14:02:21;;;;;;;0.00;0.00;;;;;;;;;;5076643;28;20032;-94
2024/01/05 14:04:47;;;;;;;0.00;0.00;;;;;;;;;;5060466;28;20058;-94
2024/01/05 14:07:13;;;;;;;0.00;0.00;;;;;;;;;;5080031;28;20121;-95
2024/01/05 14:09:39;;;;;;;0.00;0.00;;;;;;;;;;5065808;28;20352;-96
2024/01/05 14:12:06;;;;;;;0.00;0.00;;;;;;;;;;5045420;28;20132;-95
2024/01/05 14:14:31;;;;;;;0.00;0.00;;;;;;;;;;5077728;28;20052;-95
2024/01/05 14:16:57;;;;;;;0.00;0.00;;;;;;;;;;5082301;28;20075;-94
2024/01/05 14:19:24;;;;;;;0.00;0.00;;;;;;;;;;5065142;28;20032;-94
2024/01/05 14:21:49;;;;;;;0.00;0.00;;;;;;;;;;5045805;28;20039;-96
2024/01/05 14:24:15;;;;;;;0.08;0.00;;;;;;;;;;5058981;28;20036;-95
2024/01/05 14:26:44;;;;;;;0.00;0.00;;;;;;;;;;5080230;28;20020;-93
2024/01/05 14:29:10;;;;;;;0.00;0.00;;;;;;;;;;5068396;28;20036;-93
2024/01/05 14:31:35;;;;;;;0.00;0.00;;;;;;;;;;5068620;28;20032;-94
2024/01/05 14:34:01;;;;;;;0.00;0.00;;;;;;;;;;5061431;28;20077;-93
2024/01/05 14:36:27;;;;;;;0.00;0.00;;;;;;;;;;5056981;28;20036;-95
2024/01/05 14:38:52;;;;;;;0.00;0.00;;;;;;;;;;5039406;28;20090;-95
2024/01/05 14:41:18;;;;;;;0.00;0.00;;;;;;;;;;5016929;28;20037;-96
2024/01/05 14:43:44;;;;;;;0.00;0.00;;;;;;;;;;5029189;28;20025;-96
2024/01/05 14:46:10;;;;;;;0.10;0.00;;;;;;;;;;5041582;28;20040;-94
2024/01/05 14:48:36;;;;;;;0.00;0.00;;;;;;;;;;5031703;28;20021;-95
2024/01/05 14:51:03;;;;;;;0.00;0.00;;;;;;;;;;5045141;28;20125;-94
2024/01/05 14:53:30;;;;;;;0.00;0.00;;;;;;;;;;5042314;28;20040;-96
2024/01/05 14:55:56;;;;;;;0.00;0.00;;;;;;;;;;5056411;28;20431;-95
2024/01/05 14:58:21;;;;;;;0.00;0.00;;;;;;;;;;5040346;28;20036;-96
2024/01/05 15:00:47;;;;;;;0.00;0.00;;;;;;;;;;5056308;28;20025;-96
2024/01/05 15:03:12;;;;;;;0.00;0.00;;;;;;;;;;5021563;28;20123;-96
2024/01/05 15:05:38;;;;;;;0.00;0.00;;;;;;;;;;5054625;28;20032;-96
2024/01/05 15:08:04;;;;;;;0.00;0.00;;;;;;;;;;5055635;28;20048;-96
2024/01/05 15:10:31;;;;;;;0.00;0.00;;;;;;;;;;5053993;28;20029;-95
2024/01/05 15:12:57;;;;;;;0.43;0.00;;;;;;;;;;5038206;28;20127;-96
2024/01/05 15:15:23;;;;;;;0.00;0.00;;;;;;;;;;5037735;28;20055;-94
2024/01/05 15:17:49;;;;;;;0.00;0.00;;;;;;;;;;5043423;28;20020;-94
2024/01/05 15:20:16;;;;;;;0.00;0.00;;;;;;;;;;5044150;28;20104;-96
2024/01/05 15:22:41;;;;;;;0.00;0.00;;;;;;;;;;5055327;28;20428;-95
2024/01/05 15:25:07;;;;;;;0.00;0.00;;;;;;;;;;5054066;28;20135;-95
2024/01/05 15:27:32;;;;;;;0.00;0.00;;;;;;;;;;5037252;28;20033;-96